Time;durP1;ratioP1;P1;durP2;ratioP2;P2;SDS_P1;SDS_P2;PMS_P1;PMS_P2;Temp;Humidity;BMP_temperature;BMP_pressure;BME280_temperature;BME280_humidity;BME280_pressure;Samples;Min_cycle;Max_cycle;Signal;HPM_P1;HPM_P2
2022/03/20 00:00:35;;;;;;;6.93;6.32;;;;;;;;;;5098416;28;20298;-53
2022/03/20 00:03:06;;;;;;;7.45;6.80;;;;;;;;;;5097809;28;20302;-53
2022/03/20 00:05:38;;;;;;;7.10;6.40;;;;;;;;;;5097239;28;20200;-53
2022/03/20 00:08:08;;;;;;;7.18;6.57;;;;;;;;;;5097131;28;20477;-53
2022/03/20 00:10:36;;;;;;;7.15;6.55;;;;;;;;;;5096629;28;20253;-53
2022/03/20 00:13:06;;;;;;;7.20;6.53;;;;;;;;;;5098101;28;20287;-53
2022/03/20 00:15:33;;;;;;;6.95;6.25;;;;;;;;;;5097159;28;20239;-53
2022/03/20 00:18:01;;;;;;;6.40;5.85;;;;;;;;;;5098004;28;20302;-53
2022/03/20 00:20:28;;;;;;;7.40;6.80;;;;;;;;;;5097499;28;20203;-53
2022/03/20 00:22:57;;;;;;;8.15;7.45;;;;;;;;;;5097273;28;20214;-53
2022/03/20 00:25:24;;;;;;;7.05;6.45;;;;;;;;;;5096793;28;20643;-53
2022/03/20 00:27:52;;;;;;;7.63;6.93;;;;;;;;;;5096710;28;20286;-53
2022/03/20 00:30:19;;;;;;;7.15;6.45;;;;;;;;;;5096769;28;20299;-53
2022/03/20 00:32:47;;;;;;;7.80;7.10;;;;;;;;;;5097347;28;20214;-53
2022/03/20 00:35:14;;;;;;;7.78;7.07;;;;;;;;;;5097178;28;20254;-53
2022/03/20 00:37:42;;;;;;;6.43;5.93;;;;;;;;;;5096484;28;20245;-53
2022/03/20 00:40:11;;;;;;;6.80;6.20;;;;;;;;;;5097326;28;20203;-53
2022/03/20 00:42:38;;;;;;;7.20;6.60;;;;;;;;;;5097206;28;20250;-53
2022/03/20 00:45:07;;;;;;;6.63;6.03;;;;;;;;;;5096891;28;20682;-53
2022/03/20 00:47:34;;;;;;;6.65;6.05;;;;;;;;;;5096984;28;20707;-53
2022/03/20 00:50:01;;;;;;;6.70;6.10;;;;;;;;;;5096565;28;20298;-53
2022/03/20 00:52:32;;;;;;;6.95;6.35;;;;;;;;;;5096283;28;20647;-53
2022/03/20 00:54:59;;;;;;;7.00;6.30;;;;;;;;;;5096346;28;20222;-53
2022/03/20 00:57:28;;;;;;;6.95;6.25;;;;;;;;;;5095412;28;20602;-53
2022/03/20 00:59:56;;;;;;;6.93;6.32;;;;;;;;;;5095883;28;20202;-53
2022/03/20 01:02:24;;;;;;;7.22;6.53;;;;;;;;;;5095015;28;20207;-53
2022/03/20 01:04:51;;;;;;;6.85;6.25;;;;;;;;;;5096240;28;20479;-53
2022/03/20 01:07:18;;;;;;;7.07;6.40;;;;;;;;;;5095804;28;20478;-53
2022/03/20 01:09:46;;;;;;;6.97;6.38;;;;;;;;;;5095896;28;20294;-53
2022/03/20 01:12:14;;;;;;;7.55;6.85;;;;;;;;;;5095929;28;20218;-53
2022/03/20 01:14:43;;;;;;;6.68;6.07;;;;;;;;;;5095186;28;20276;-53
2022/03/20 01:17:11;;;;;;;6.90;6.30;;;;;;;;;;5095752;28;20228;-53
2022/03/20 01:19:38;;;;;;;6.95;6.35;;;;;;;;;;5095615;28;20204;-53
2022/03/20 01:22:06;;;;;;;6.60;6.00;;;;;;;;;;5095836;28;20227;-53
2022/03/20 01:24:33;;;;;;;7.10;6.47;;;;;;;;;;5095263;28;20583;-53
2022/03/20 01:27:01;;;;;;;6.88;6.28;;;;;;;;;;5095760;28;20290;-53
2022/03/20 01:29:28;;;;;;;6.57;5.97;;;;;;;;;;5096503;28;20282;-53
2022/03/20 01:31:57;;;;;;;6.65;6.07;;;;;;;;;;5096862;28;20307;-53
2022/03/20 01:34:25;;;;;;;7.18;6.55;;;;;;;;;;5095816;28;20222;-53
2022/03/20 01:36:53;;;;;;;6.53;5.93;;;;;;;;;;5095466;28;20227;-53
2022/03/20 01:39:21;;;;;;;7.05;6.45;;;;;;;;;;5095818;28;20515;-53
2022/03/20 01:41:48;;;;;;;6.60;6.00;;;;;;;;;;5095171;28;20298;-53
2022/03/20 01:44:16;;;;;;;6.57;5.97;;;;;;;;;;5095944;28;20204;-53
2022/03/20 01:46:43;;;;;;;6.82;6.15;;;;;;;;;;5095352;28;20322;-52
2022/03/20 01:49:12;;;;;;;6.70;6.10;;;;;;;;;;5096583;28;20239;-53
2022/03/20 01:54:24;;;;;;;6.55;5.95;;;;;;;;;;5095822;28;20210;-52
2022/03/20 01:56:54;;;;;;;6.07;5.55;;;;;;;;;;5096638;28;20215;-53
2022/03/20 01:59:22;;;;;;;6.75;6.15;;;;;;;;;;5095521;28;20606;-52
2022/03/20 02:01:49;;;;;;;6.78;6.18;;;;;;;;;;5095804;28;20260;-53
2022/03/20 02:04:18;;;;;;;6.53;5.93;;;;;;;;;;5096525;28;20567;-53
2022/03/20 02:06:46;;;;;;;6.70;6.00;;;;;;;;;;5095746;28;20241;-53
2022/03/20 02:09:16;;;;;;;6.43;5.82;;;;;;;;;;5095614;28;20215;-53
2022/03/20 02:11:44;;;;;;;6.80;6.20;;;;;;;;;;5095403;28;20226;-53
2022/03/20 02:14:12;;;;;;;6.72;6.13;;;;;;;;;;5095836;28;20207;-53
2022/03/20 02:16:39;;;;;;;7.00;6.40;;;;;;;;;;5096148;28;20318;-53
2022/03/20 02:19:08;;;;;;;6.90;6.20;;;;;;;;;;5095731;28;20310;-53
2022/03/20 02:21:41;;;;;;;7.22;6.57;;;;;;;;;;5095202;28;20286;-53
2022/03/20 02:24:23;;;;;;;6.72;6.13;;;;;;;;;;5096093;28;20295;-53
2022/03/20 02:26:51;;;;;;;6.88;6.28;;;;;;;;;;5095102;28;20209;-53
2022/03/20 02:29:18;;;;;;;7.07;6.47;;;;;;;;;;5095861;28;20299;-53
2022/03/20 02:31:45;;;;;;;6.57;6.03;;;;;;;;;;5096209;28;20601;-53
2022/03/20 02:34:14;;;;;;;7.00;6.40;;;;;;;;;;5099251;28;20550;-53
2022/03/20 02:36:44;;;;;;;6.57;5.97;;;;;;;;;;5098912;28;20690;-53
2022/03/20 02:39:12;;;;;;;6.82;6.20;;;;;;;;;;5100004;28;20306;-52
2022/03/20 02:41:39;;;;;;;7.15;6.45;;;;;;;;;;5099917;28;20282;-52
2022/03/20 02:44:06;;;;;;;6.90;6.30;;;;;;;;;;5099277;28;20203;-52
2022/03/20 02:46:37;;;;;;;6.80;6.20;;;;;;;;;;5099381;28;20311;-52
2022/03/20 02:49:06;;;;;;;7.18;6.57;;;;;;;;;;5099916;28;20302;-53
2022/03/20 02:51:35;;;;;;;7.22;6.53;;;;;;;;;;5099229;28;20446;-53
2022/03/20 02:54:05;;;;;;;6.88;6.28;;;;;;;;;;5099996;28;20208;-53
2022/03/20 02:56:33;;;;;;;7.03;6.43;;;;;;;;;;5098559;28;20314;-52
2022/03/20 02:59:02;;;;;;;7.20;6.47;;;;;;;;;;5100105;28;20204;-53
2022/03/20 03:01:30;;;;;;;7.13;6.53;;;;;;;;;;5099536;28;20199;-53
2022/03/20 03:03:58;;;;;;;7.55;6.85;;;;;;;;;;5098970;28;20517;-53
2022/03/20 03:06:25;;;;;;;6.70;6.10;;;;;;;;;;5098741;28;20200;-52
2022/03/20 03:11:39;;;;;;;6.80;6.20;;;;;;;;;;5099406;28;20194;-53
2022/03/20 03:16:48;;;;;;;7.32;6.72;;;;;;;;;;5097565;28;20223;-53
2022/03/20 03:19:15;;;;;;;7.28;6.68;;;;;;;;;;5098813;28;20207;-53
2022/03/20 03:21:43;;;;;;;7.40;6.80;;;;;;;;;;5098354;28;20294;-53
2022/03/20 03:24:10;;;;;;;6.97;6.38;;;;;;;;;;5099392;28;20481;-53
2022/03/20 03:26:39;;;;;;;7.43;6.75;;;;;;;;;;5098162;28;20235;-52
2022/03/20 03:29:07;;;;;;;6.93;6.32;;;;;;;;;;5098031;28;20200;-53
2022/03/20 03:31:35;;;;;;;7.28;6.57;;;;;;;;;;5099185;28;20302;-53
2022/03/20 03:36:47;;;;;;;7.20;6.60;;;;;;;;;;5098238;28;20230;-53
2022/03/20 03:39:15;;;;;;;6.82;6.22;;;;;;;;;;5098308;28;20590;-53
2022/03/20 03:41:44;;;;;;;6.57;5.97;;;;;;;;;;5098465;28;20211;-53
2022/03/20 03:44:12;;;;;;;7.03;6.43;;;;;;;;;;5098786;28;20394;-53
2022/03/20 03:46:39;;;;;;;7.45;6.80;;;;;;;;;;5098284;28;20314;-53
2022/03/20 03:49:06;;;;;;;7.18;6.57;;;;;;;;;;5098208;28;20306;-52
2022/03/20 03:51:34;;;;;;;7.28;6.57;;;;;;;;;;5098833;28;20394;-52
2022/03/20 03:54:01;;;;;;;7.10;6.50;;;;;;;;;;5098508;28;20639;-53
2022/03/20 03:56:29;;;;;;;7.78;7.07;;;;;;;;;;5097310;28;20302;-52
2022/03/20 03:58:57;;;;;;;7.50;6.80;;;;;;;;;;5098714;28;20207;-52
2022/03/20 04:01:25;;;;;;;7.15;6.55;;;;;;;;;;5098556;28;20290;-53
2022/03/20 04:03:53;;;;;;;7.45;6.85;;;;;;;;;;5098103;28;20298;-52
2022/03/20 04:06:20;;;;;;;7.30;6.70;;;;;;;;;;5097835;28;20290;-52
2022/03/20 04:08:47;;;;;;;7.07;6.47;;;;;;;;;;5098665;28;20208;-52
2022/03/20 04:11:15;;;;;;;7.30;6.63;;;;;;;;;;5097591;28;20694;-52
2022/03/20 04:13:44;;;;;;;6.82;6.22;;;;;;;;;;5097363;28;20594;-53
2022/03/20 04:16:13;;;;;;;7.57;6.88;;;;;;;;;;5097670;28;20222;-53
2022/03/20 04:18:40;;;;;;;7.78;7.07;;;;;;;;;;5097777;28;20298;-53
2022/03/20 04:21:07;;;;;;;7.32;6.63;;;;;;;;;;5097338;28;20298;-53
2022/03/20 04:23:45;;;;;;;7.43;6.72;;;;;;;;;;5097927;28;20561;-52
2022/03/20 04:26:14;;;;;;;7.32;6.68;;;;;;;;;;5096682;28;20249;-52
2022/03/20 04:28:44;;;;;;;7.18;6.57;;;;;;;;;;5097533;28;20203;-52
2022/03/20 04:31:15;;;;;;;7.40;6.75;;;;;;;;;;5097632;28;20509;-52
2022/03/20 04:33:42;;;;;;;6.93;6.32;;;;;;;;;;5097938;28;20306;-53
2022/03/20 04:36:10;;;;;;;7.20;6.50;;;;;;;;;;5096743;28;20558;-53
2022/03/20 04:38:37;;;;;;;7.47;6.78;;;;;;;;;;5097810;28;20199;-53
2022/03/20 04:41:04;;;;;;;6.93;6.32;;;;;;;;;;5096910;28;20302;-52
2022/03/20 04:43:32;;;;;;;7.28;6.68;;;;;;;;;;5097293;28;20324;-52
2022/03/20 04:46:00;;;;;;;7.57;6.88;;;;;;;;;;5097078;28;20629;-52
2022/03/20 04:59:29;;;;;;;7.38;6.75;;;;;;;;;;5095978;28;20206;-52
2022/03/20 05:01:56;;;;;;;7.00;6.40;;;;;;;;;;5097155;28;20646;-52
2022/03/20 05:04:25;;;;;;;7.28;6.57;;;;;;;;;;5096545;28;20298;-52
2022/03/20 05:06:52;;;;;;;7.57;6.95;;;;;;;;;;5097056;28;20294;-53
2022/03/20 05:14:50;;;;;;;7.10;6.40;;;;;;;;;;5096631;28;20248;-52
2022/03/20 05:17:18;;;;;;;7.50;6.80;;;;;;;;;;5096769;28;20578;-52
2022/03/20 05:19:46;;;;;;;7.10;6.50;;;;;;;;;;5096163;28;20207;-52
2022/03/20 05:22:14;;;;;;;7.28;6.68;;;;;;;;;;5096622;28;20307;-52
2022/03/20 05:24:43;;;;;;;7.88;7.18;;;;;;;;;;5096968;28;20657;-52
2022/03/20 05:27:10;;;;;;;7.80;7.10;;;;;;;;;;5097203;28;20275;-52
2022/03/20 05:29:38;;;;;;;7.40;6.70;;;;;;;;;;5097329;28;20492;-52
2022/03/20 05:32:06;;;;;;;7.32;6.72;;;;;;;;;;5097329;28;20207;-53
2022/03/20 05:34:34;;;;;;;6.97;6.38;;;;;;;;;;5097103;28;20209;-53
2022/03/20 05:37:04;;;;;;;7.55;6.85;;;;;;;;;;5097390;28;20560;-52
2022/03/20 05:39:31;;;;;;;7.25;6.65;;;;;;;;;;5097360;28;20580;-52
2022/03/20 05:41:59;;;;;;;7.63;6.93;;;;;;;;;;5097349;28;20659;-52
2022/03/20 05:44:27;;;;;;;7.32;6.72;;;;;;;;;;5097317;28;20310;-52
2022/03/20 05:46:55;;;;;;;7.60;6.90;;;;;;;;;;5097046;28;20487;-52
2022/03/20 05:49:23;;;;;;;7.55;6.88;;;;;;;;;;5097310;28;20211;-53
2022/03/20 05:51:51;;;;;;;7.13;6.53;;;;;;;;;;5097181;28;20663;-53
2022/03/20 05:54:22;;;;;;;7.43;6.80;;;;;;;;;;5097096;28;20594;-53
2022/03/20 05:59:35;;;;;;;7.43;6.72;;;;;;;;;;5097226;28;20480;-52
2022/03/20 06:02:02;;;;;;;7.40;6.70;;;;;;;;;;5097427;28;20591;-52
2022/03/20 06:04:31;;;;;;;7.63;6.93;;;;;;;;;;5097834;28;20290;-52
2022/03/20 06:06:59;;;;;;;7.20;6.60;;;;;;;;;;5097533;28;20207;-52
2022/03/20 06:09:28;;;;;;;7.10;6.50;;;;;;;;;;5101441;28;20298;-53
2022/03/20 06:11:56;;;;;;;7.03;6.43;;;;;;;;;;5101215;28;20286;-53
2022/03/20 06:14:23;;;;;;;7.20;6.50;;;;;;;;;;5101278;28;20233;-52
2022/03/20 06:16:51;;;;;;;7.13;6.53;;;;;;;;;;5101053;28;20282;-52
2022/03/20 06:19:19;;;;;;;7.15;6.53;;;;;;;;;;5101390;28;20203;-52
2022/03/20 06:21:47;;;;;;;7.45;6.85;;;;;;;;;;5101105;28;20650;-52
2022/03/20 06:24:14;;;;;;;7.72;7.03;;;;;;;;;;5101303;28;20211;-53
2022/03/20 06:26:43;;;;;;;7.43;6.82;;;;;;;;;;5101039;28;20306;-53
2022/03/20 06:29:11;;;;;;;7.13;6.53;;;;;;;;;;5100744;28;20297;-52
2022/03/20 06:31:38;;;;;;;7.82;7.13;;;;;;;;;;5100883;28;20587;-52
2022/03/20 06:34:06;;;;;;;7.47;6.80;;;;;;;;;;5101126;28;20495;-52
2022/03/20 06:36:33;;;;;;;8.00;7.30;;;;;;;;;;5100943;28;20239;-52
2022/03/20 06:39:01;;;;;;;8.00;7.30;;;;;;;;;;5100404;28;20506;-52
2022/03/20 06:41:29;;;;;;;7.75;7.07;;;;;;;;;;5099247;28;20273;-52
2022/03/20 06:43:58;;;;;;;7.88;7.18;;;;;;;;;;5100392;28;20207;-52
2022/03/20 06:46:27;;;;;;;7.72;7.10;;;;;;;;;;5099904;28;20204;-52
2022/03/20 06:48:54;;;;;;;7.50;6.90;;;;;;;;;;5100135;28;20207;-53
2022/03/20 06:51:22;;;;;;;7.90;7.20;;;;;;;;;;5100578;28;20564;-53
2022/03/20 06:53:49;;;;;;;8.23;7.45;;;;;;;;;;5100253;28;20294;-53
2022/03/20 06:56:17;;;;;;;8.88;7.97;;;;;;;;;;5100502;28;20203;-53
2022/03/20 06:58:45;;;;;;;7.63;6.97;;;;;;;;;;5100283;28;20576;-53
2022/03/20 07:01:14;;;;;;;7.78;7.10;;;;;;;;;;5100543;28;20540;-53
2022/03/20 07:03:41;;;;;;;8.07;7.35;;;;;;;;;;5099980;28;20307;-53
2022/03/20 07:06:09;;;;;;;8.13;7.35;;;;;;;;;;5100010;28;20264;-53
2022/03/20 07:08:36;;;;;;;7.72;7.13;;;;;;;;;;5099902;28;20196;-53
2022/03/20 07:11:03;;;;;;;7.60;6.97;;;;;;;;;;5099242;28;20745;-53
2022/03/20 07:13:50;;;;;;;8.07;7.38;;;;;;;;;;5099993;28;20204;-53
2022/03/20 07:16:20;;;;;;;7.32;6.68;;;;;;;;;;5099947;28;20212;-52
2022/03/20 07:18:47;;;;;;;7.18;6.57;;;;;;;;;;5099500;28;20223;-52
2022/03/20 07:21:15;;;;;;;7.22;6.53;;;;;;;;;;5099868;28;20203;-53
2022/03/20 07:23:42;;;;;;;7.70;7.10;;;;;;;;;;5099039;28;20203;-53
2022/03/20 07:31:41;;;;;;;7.50;6.80;;;;;;;;;;5098899;28;20191;-53
2022/03/20 07:34:09;;;;;;;7.95;7.15;;;;;;;;;;5099639;28;20257;-53
2022/03/20 07:36:36;;;;;;;8.10;7.40;;;;;;;;;;5098344;28;20210;-53
2022/03/20 07:39:04;;;;;;;7.90;7.20;;;;;;;;;;5098687;28;20224;-53
2022/03/20 07:41:32;;;;;;;7.80;7.10;;;;;;;;;;5099526;28;20204;-53
2022/03/20 07:44:00;;;;;;;7.97;7.22;;;;;;;;;;5099483;28;20230;-53
2022/03/20 07:46:27;;;;;;;7.95;7.25;;;;;;;;;;5098861;28;20230;-53
2022/03/20 07:48:56;;;;;;;7.80;7.10;;;;;;;;;;5098628;28;20200;-53
2022/03/20 07:51:23;;;;;;;7.93;7.22;;;;;;;;;;5099347;28;20230;-53
2022/03/20 07:53:51;;;;;;;7.78;7.07;;;;;;;;;;5099143;28;20239;-53
2022/03/20 07:56:21;;;;;;;8.00;7.28;;;;;;;;;;5098904;28;20218;-53
2022/03/20 07:58:48;;;;;;;8.32;7.53;;;;;;;;;;5098282;28;20288;-53
2022/03/20 08:01:16;;;;;;;7.70;7.00;;;;;;;;;;5098560;28;20314;-53
2022/03/20 08:03:43;;;;;;;7.57;6.88;;;;;;;;;;5098170;28;20200;-53
2022/03/20 08:06:12;;;;;;;7.93;7.30;;;;;;;;;;5098385;28;20229;-53
2022/03/20 08:08:41;;;;;;;7.30;6.63;;;;;;;;;;5098542;28;20609;-53
2022/03/20 08:11:09;;;;;;;7.80;7.10;;;;;;;;;;5096958;28;20606;-53
2022/03/20 08:13:36;;;;;;;7.93;7.22;;;;;;;;;;5097497;28;20208;-53
2022/03/20 08:16:04;;;;;;;7.70;7.00;;;;;;;;;;5097770;28;20561;-53
2022/03/20 08:18:32;;;;;;;7.80;7.10;;;;;;;;;;5098065;28;20323;-53
2022/03/20 08:20:59;;;;;;;7.70;7.00;;;;;;;;;;5097941;28;20203;-53
2022/03/20 08:23:28;;;;;;;7.80;7.10;;;;;;;;;;5097646;28;20263;-53
2022/03/20 08:25:55;;;;;;;8.30;7.53;;;;;;;;;;5097819;28;20207;-53
2022/03/20 08:28:23;;;;;;;7.40;6.80;;;;;;;;;;5098353;28;20294;-53
2022/03/20 08:30:50;;;;;;;7.63;6.97;;;;;;;;;;5095865;28;20615;-53
2022/03/20 08:33:18;;;;;;;7.85;7.13;;;;;;;;;;5097663;28;20207;-53
2022/03/20 08:35:45;;;;;;;7.60;7.00;;;;;;;;;;5097619;28;20204;-53
2022/03/20 08:38:13;;;;;;;8.13;7.43;;;;;;;;;;5097633;28;20323;-53
2022/03/20 08:40:42;;;;;;;8.43;7.63;;;;;;;;;;5096227;28;20638;-53
2022/03/20 08:43:15;;;;;;;7.78;7.07;;;;;;;;;;5096868;28;20299;-53
2022/03/20 08:45:43;;;;;;;8.10;7.40;;;;;;;;;;5097072;28;20269;-53
2022/03/20 08:48:10;;;;;;;8.02;7.32;;;;;;;;;;5097316;28;20677;-53
2022/03/20 08:50:39;;;;;;;8.25;7.55;;;;;;;;;;5097144;28;20294;-53
2022/03/20 08:53:06;;;;;;;7.50;6.90;;;;;;;;;;5098000;28;20322;-53
2022/03/20 08:55:34;;;;;;;7.82;7.07;;;;;;;;;;5096521;28;20287;-53
2022/03/20 08:58:04;;;;;;;7.97;7.28;;;;;;;;;;5097145;28;20228;-53
2022/03/20 09:00:33;;;;;;;7.70;7.00;;;;;;;;;;5097595;28;20286;-53
2022/03/20 09:03:01;;;;;;;7.88;7.18;;;;;;;;;;5096811;28;20226;-53
2022/03/20 09:05:28;;;;;;;7.47;6.78;;;;;;;;;;5088772;28;20504;-53
2022/03/20 09:07:57;;;;;;;7.25;6.55;;;;;;;;;;5096935;28;20295;-53
2022/03/20 09:10:26;;;;;;;7.68;6.97;;;;;;;;;;5097294;28;20204;-53
2022/03/20 09:12:57;;;;;;;8.80;8.00;;;;;;;;;;5097351;28;20282;-53
2022/03/20 09:15:26;;;;;;;7.70;7.00;;;;;;;;;;5097155;28;20585;-53
2022/03/20 09:20:40;;;;;;;8.18;7.38;;;;;;;;;;5095828;28;20199;-53
2022/03/20 09:23:08;;;;;;;7.72;7.03;;;;;;;;;;5096598;28;20604;-53
2022/03/20 09:25:36;;;;;;;7.53;6.82;;;;;;;;;;5090177;28;20199;-53
2022/03/20 09:28:04;;;;;;;7.65;7.05;;;;;;;;;;5096701;28;20290;-53
2022/03/20 09:30:33;;;;;;;7.55;6.85;;;;;;;;;;5096156;28;20204;-53
2022/03/20 09:33:02;;;;;;;7.75;7.05;;;;;;;;;;5097064;28;20298;-53
2022/03/20 09:35:30;;;;;;;7.50;6.80;;;;;;;;;;5095940;28;20215;-53
2022/03/20 09:37:57;;;;;;;7.60;6.95;;;;;;;;;;5096021;28;20218;-53
2022/03/20 09:40:25;;;;;;;7.18;6.57;;;;;;;;;;5095912;28;20434;-53
2022/03/20 09:42:52;;;;;;;7.60;6.93;;;;;;;;;;5095412;28;20294;-53
2022/03/20 09:45:21;;;;;;;7.05;6.38;;;;;;;;;;5096032;28;20203;-53
2022/03/20 09:47:50;;;;;;;7.55;6.85;;;;;;;;;;5095115;28;20246;-53
2022/03/20 09:50:17;;;;;;;7.60;7.00;;;;;;;;;;5095430;28;20504;-53
2022/03/20 09:52:45;;;;;;;7.13;6.53;;;;;;;;;;5094391;28;20203;-53
2022/03/20 09:55:12;;;;;;;7.28;6.57;;;;;;;;;;5095518;28;20381;-53
2022/03/20 09:57:40;;;;;;;7.65;6.90;;;;;;;;;;5095140;28;20532;-53
2022/03/20 10:00:11;;;;;;;7.57;6.88;;;;;;;;;;5094631;28;20212;-53
2022/03/20 10:02:39;;;;;;;7.20;6.60;;;;;;;;;;5094201;28;20323;-53
2022/03/20 10:05:08;;;;;;;7.30;6.70;;;;;;;;;;5095198;28;20456;-53
2022/03/20 10:07:40;;;;;;;7.88;7.20;;;;;;;;;;5095277;28;20207;-53
2022/03/20 10:10:08;;;;;;;7.32;6.72;;;;;;;;;;5094680;28;20282;-53
2022/03/20 10:12:37;;;;;;;8.35;7.55;;;;;;;;;;5095616;28;20235;-53
2022/03/20 10:15:05;;;;;;;9.48;8.48;;;;;;;;;;5095285;28;20609;-53
2022/03/20 10:17:33;;;;;;;9.57;8.57;;;;;;;;;;5096415;28;20238;-53
2022/03/20 10:20:15;;;;;;;9.20;8.25;;;;;;;;;;5095390;28;20305;-53
2022/03/20 10:22:42;;;;;;;8.60;7.70;;;;;;;;;;5095864;28;20401;-53
2022/03/20 10:25:12;;;;;;;7.60;6.80;;;;;;;;;;5094362;28;20203;-53
2022/03/20 10:27:40;;;;;;;8.13;7.38;;;;;;;;;;5094632;28;20204;-53
2022/03/20 10:30:11;;;;;;;8.18;7.38;;;;;;;;;;5094442;28;20475;-53
2022/03/20 10:32:49;;;;;;;8.07;7.28;;;;;;;;;;5094889;28;20405;-53
2022/03/20 10:35:18;;;;;;;7.85;6.68;;;;;;;;;;5094634;28;20210;-53
2022/03/20 10:37:51;;;;;;;7.82;7.03;;;;;;;;;;5094282;28;20203;-53
2022/03/20 10:40:19;;;;;;;8.45;7.43;;;;;;;;;;5093674;28;20585;-53
2022/03/20 10:43:06;;;;;;;9.20;7.50;;;;;;;;;;5095257;28;20204;-53
2022/03/20 10:45:49;;;;;;;9.50;7.82;;;;;;;;;;5094006;28;20212;-53
2022/03/20 10:48:19;;;;;;;9.68;7.70;;;;;;;;;;5093635;28;20236;-53
2022/03/20 10:50:48;;;;;;;9.90;8.10;;;;;;;;;;5093811;28;20195;-53
2022/03/20 10:53:16;;;;;;;8.75;7.72;;;;;;;;;;5094916;28;20298;-53
2022/03/20 10:55:43;;;;;;;10.88;8.57;;;;;;;;;;5097968;28;20305;-53
2022/03/20 10:58:20;;;;;;;14.68;8.60;;;;;;;;;;5098346;28;20306;-53
2022/03/20 11:00:47;;;;;;;12.40;7.68;;;;;;;;;;5097362;28;20199;-53
2022/03/20 11:03:19;;;;;;;11.23;8.65;;;;;;;;;;5097839;28;20488;-53
2022/03/20 11:05:47;;;;;;;11.70;9.02;;;;;;;;;;5097709;28;20214;-53
2022/03/20 11:08:16;;;;;;;11.63;9.05;;;;;;;;;;5097025;28;20575;-53
2022/03/20 11:10:44;;;;;;;14.00;9.23;;;;;;;;;;5097531;28;20211;-53
2022/03/20 11:13:13;;;;;;;12.15;8.73;;;;;;;;;;5097018;28;20617;-53
2022/03/20 11:15:42;;;;;;;11.80;8.70;;;;;;;;;;5097269;28;20210;-53
2022/03/20 11:18:09;;;;;;;11.13;8.48;;;;;;;;;;5098118;28;20208;-53
2022/03/20 11:20:38;;;;;;;11.15;8.45;;;;;;;;;;5097682;28;20231;-53
2022/03/20 11:23:07;;;;;;;12.00;8.80;;;;;;;;;;5096962;28;20493;-53
2022/03/20 11:25:36;;;;;;;11.85;7.78;;;;;;;;;;5097080;28;20203;-53
2022/03/20 11:28:04;;;;;;;14.05;8.63;;;;;;;;;;5097774;28;20299;-53
2022/03/20 11:30:32;;;;;;;10.07;8.10;;;;;;;;;;5097823;28;20290;-53
2022/03/20 11:33:01;;;;;;;13.25;8.85;;;;;;;;;;5096689;28;20501;-53
2022/03/20 11:35:30;;;;;;;11.85;8.63;;;;;;;;;;5098008;28;20204;-53
2022/03/20 11:37:59;;;;;;;11.70;8.60;;;;;;;;;;5096207;28;20510;-53
2022/03/20 11:40:30;;;;;;;10.23;8.05;;;;;;;;;;5096190;28;20220;-53
2022/03/20 11:43:13;;;;;;;11.07;8.00;;;;;;;;;;5096008;28;20191;-53
2022/03/20 11:45:41;;;;;;;11.50;7.95;;;;;;;;;;5096592;28;20214;-53
2022/03/20 11:48:14;;;;;;;10.45;8.20;;;;;;;;;;5096027;28;20339;-53
2022/03/20 11:50:42;;;;;;;11.35;8.38;;;;;;;;;;5095796;28;20298;-53
2022/03/20 11:53:10;;;;;;;11.65;7.95;;;;;;;;;;5097143;28;20477;-53
2022/03/20 11:55:38;;;;;;;11.02;8.48;;;;;;;;;;5096396;28;20269;-53
2022/03/20 11:58:06;;;;;;;11.40;8.27;;;;;;;;;;5096537;28;20576;-53
2022/03/20 12:00:35;;;;;;;10.18;7.50;;;;;;;;;;5096242;28;20223;-53
2022/03/20 12:03:23;;;;;;;11.00;7.97;;;;;;;;;;5096184;28;20211;-53
2022/03/20 12:05:55;;;;;;;11.27;7.43;;;;;;;;;;5095143;28;20246;-53
2022/03/20 12:08:30;;;;;;;10.48;8.13;;;;;;;;;;5095483;28;20319;-53
2022/03/20 12:11:03;;;;;;;12.23;9.15;;;;;;;;;;5095060;28;20213;-53
2022/03/20 12:13:35;;;;;;;10.93;9.07;;;;;;;;;;5095317;28;20207;-53
2022/03/20 12:16:03;;;;;;;14.15;10.00;;;;;;;;;;5095148;28;20554;-53
2022/03/20 12:18:52;;;;;;;13.80;9.90;;;;;;;;;;5095225;28;20234;-53
2022/03/20 12:21:19;;;;;;;12.95;10.02;;;;;;;;;;5094133;28;20210;-53
2022/03/20 12:23:47;;;;;;;15.98;11.43;;;;;;;;;;5093550;28;20229;-53
2022/03/20 12:26:31;;;;;;;14.35;10.60;;;;;;;;;;5095592;28;20203;-53
2022/03/20 12:29:13;;;;;;;15.50;10.85;;;;;;;;;;5095912;28;20207;-53
2022/03/20 12:31:55;;;;;;;17.63;12.93;;;;;;;;;;5078151;28;20205;-53
2022/03/20 12:34:25;;;;;;;20.15;13.77;;;;;;;;;;5095715;28;20211;-53
2022/03/20 12:36:52;;;;;;;19.17;14.43;;;;;;;;;;5094911;28;20204;-53
2022/03/20 12:39:38;;;;;;;20.63;13.55;;;;;;;;;;5095626;28;20230;-53
2022/03/20 12:42:16;;;;;;;22.85;15.40;;;;;;;;;;5078542;28;20200;-53
2022/03/20 12:44:45;;;;;;;22.70;16.15;;;;;;;;;;5094917;28;20230;-53
2022/03/20 12:47:13;;;;;;;24.20;16.20;;;;;;;;;;5094784;28;20231;-53
2022/03/20 12:49:43;;;;;;;23.70;15.32;;;;;;;;;;5095522;28;20540;-53
2022/03/20 12:52:12;;;;;;;21.27;15.63;;;;;;;;;;5094644;28;20286;-53
2022/03/20 12:54:39;;;;;;;21.73;15.65;;;;;;;;;;5095096;28;20201;-53
2022/03/20 12:57:07;;;;;;;22.35;15.82;;;;;;;;;;5094195;28;20298;-53
2022/03/20 12:59:34;;;;;;;22.70;16.15;;;;;;;;;;5094277;28;20627;-53
2022/03/20 13:02:08;;;;;;;23.30;15.35;;;;;;;;;;5094644;28;20654;-53
2022/03/20 13:04:35;;;;;;;21.23;15.15;;;;;;;;;;5094570;28;20582;-53
2022/03/20 13:07:23;;;;;;;23.52;15.35;;;;;;;;;;5094618;28;20204;-53
2022/03/20 13:09:58;;;;;;;21.13;15.45;;;;;;;;;;5093937;28;20264;-53
2022/03/20 13:12:25;;;;;;;21.13;15.27;;;;;;;;;;5093931;28;20202;-53
2022/03/20 13:14:55;;;;;;;18.88;14.23;;;;;;;;;;5093849;28;20214;-53
2022/03/20 13:17:25;;;;;;;19.15;14.70;;;;;;;;;;5093868;28;20203;-53
2022/03/20 13:19:53;;;;;;;20.52;15.40;;;;;;;;;;5093682;28;20495;-53
2022/03/20 13:22:22;;;;;;;18.58;14.23;;;;;;;;;;5092931;28;20502;-53
2022/03/20 13:24:49;;;;;;;19.48;13.68;;;;;;;;;;5093934;28;20298;-53
2022/03/20 13:27:17;;;;;;;19.58;13.60;;;;;;;;;;5093569;28;20203;-53
2022/03/20 13:29:53;;;;;;;18.63;14.15;;;;;;;;;;5093968;28;20210;-53
2022/03/20 13:32:22;;;;;;;19.50;13.35;;;;;;;;;;5093407;28;20683;-53
2022/03/20 13:34:51;;;;;;;17.60;13.30;;;;;;;;;;5093032;28;20230;-53
2022/03/20 13:37:19;;;;;;;18.85;13.60;;;;;;;;;;5092870;28;20204;-53
2022/03/20 13:39:50;;;;;;;16.60;12.77;;;;;;;;;;5092454;28;20227;-53
2022/03/20 13:42:19;;;;;;;17.42;13.25;;;;;;;;;;5092575;28;20211;-53
2022/03/20 13:44:48;;;;;;;15.13;12.05;;;;;;;;;;5093162;28;20298;-53
2022/03/20 13:47:16;;;;;;;15.82;12.25;;;;;;;;;;5093344;28;20398;-53
2022/03/20 13:49:43;;;;;;;15.10;10.85;;;;;;;;;;5092568;28;20598;-53
2022/03/20 13:52:12;;;;;;;15.60;11.90;;;;;;;;;;5092357;28;20235;-53
2022/03/20 13:54:40;;;;;;;14.25;11.07;;;;;;;;;;5089192;28;20395;-53
2022/03/20 13:57:10;;;;;;;15.27;11.05;;;;;;;;;;5092111;28;20203;-53
2022/03/20 13:59:51;;;;;;;15.18;11.05;;;;;;;;;;5091253;28;20233;-53
2022/03/20 14:02:20;;;;;;;12.82;10.63;;;;;;;;;;5091839;28;20199;-53
2022/03/20 14:04:48;;;;;;;12.95;10.43;;;;;;;;;;5092810;28;20243;-53
2022/03/20 14:07:19;;;;;;;13.75;10.75;;;;;;;;;;5093332;28;20450;-53
2022/03/20 14:09:48;;;;;;;13.38;10.70;;;;;;;;;;5092120;28;20528;-53
2022/03/20 14:12:27;;;;;;;12.02;9.95;;;;;;;;;;5093123;28;20207;-53
2022/03/20 14:14:55;;;;;;;12.23;9.68;;;;;;;;;;5091351;28;20196;-53
2022/03/20 14:17:38;;;;;;;13.75;10.18;;;;;;;;;;5091766;28;20196;-53
2022/03/20 14:20:08;;;;;;;11.82;9.57;;;;;;;;;;5092494;28;20237;-53
2022/03/20 14:22:53;;;;;;;12.40;9.38;;;;;;;;;;5091539;28;20200;-53
2022/03/20 14:25:33;;;;;;;11.25;9.02;;;;;;;;;;5090886;28;20210;-53
2022/03/20 14:28:03;;;;;;;10.82;8.43;;;;;;;;;;5092232;28;20231;-53
2022/03/20 14:41:34;;;;;;;9.57;8.15;;;;;;;;;;5097178;28;20296;-53
2022/03/20 14:44:11;;;;;;;8.57;7.70;;;;;;;;;;5096875;28;20212;-53
2022/03/20 14:46:40;;;;;;;9.98;7.75;;;;;;;;;;5097273;28;20598;-53
2022/03/20 14:49:08;;;;;;;9.60;8.25;;;;;;;;;;5095894;28;20219;-53
2022/03/20 14:51:37;;;;;;;8.75;7.03;;;;;;;;;;5096287;28;20626;-53
2022/03/20 14:54:05;;;;;;;8.38;7.38;;;;;;;;;;5095039;28;20555;-53
2022/03/20 14:56:33;;;;;;;7.75;6.95;;;;;;;;;;5096447;28;20573;-53
2022/03/20 14:59:01;;;;;;;9.60;7.60;;;;;;;;;;5096173;28;20252;-53
2022/03/20 15:01:30;;;;;;;8.02;7.05;;;;;;;;;;5096710;28;20332;-53
2022/03/20 15:03:58;;;;;;;8.75;6.60;;;;;;;;;;5096268;28;20203;-53
2022/03/20 15:06:26;;;;;;;10.00;7.18;;;;;;;;;;5096455;28;20210;-53
2022/03/20 15:11:39;;;;;;;8.00;7.20;;;;;;;;;;5096115;28;20194;-53
2022/03/20 15:14:06;;;;;;;8.50;6.70;;;;;;;;;;5096284;28;20261;-53
2022/03/20 15:16:35;;;;;;;7.45;6.65;;;;;;;;;;5095993;28;20298;-53
2022/03/20 15:19:04;;;;;;;7.38;6.20;;;;;;;;;;5097076;28;20203;-53
2022/03/20 15:21:32;;;;;;;7.43;6.15;;;;;;;;;;5095693;28;20227;-53
2022/03/20 15:24:02;;;;;;;8.40;6.68;;;;;;;;;;5096181;28;20203;-53
2022/03/20 15:26:30;;;;;;;6.93;5.97;;;;;;;;;;5093606;28;20211;-53
2022/03/20 15:28:58;;;;;;;6.75;5.93;;;;;;;;;;5097815;28;20230;-53
2022/03/20 15:31:25;;;;;;;6.63;6.00;;;;;;;;;;5097356;28;20214;-53
2022/03/20 15:33:54;;;;;;;6.22;5.60;;;;;;;;;;5097512;28;20500;-53
2022/03/20 15:36:23;;;;;;;6.65;5.95;;;;;;;;;;5096918;28;20196;-53
2022/03/20 15:38:53;;;;;;;5.88;5.38;;;;;;;;;;5097210;28;20210;-53
2022/03/20 15:41:21;;;;;;;6.47;5.60;;;;;;;;;;5096184;28;20292;-53